KLSF/LSF METAR and TAF weather

Enter ICAO airport designator
Station Type Date Time Source
KLSF METAR 2019/02/17 07:56 UTC NOAA

KLSF 170756Z AUTO 00000KT 10SM OVC110 13/13 A2984 RMK AO2 RAB02E13DZB13E14 SLP109 P0000 T01250125


Station Type Date Time Source
KLSF Decoded METAR 2019/02/17 07:56 UTC NOAA

Fort Benning, GA, United States (KLSF) 32-20N 084-50W 130M
Feb 17, 2019 - 02:56 AM EST / 2019.02.17 0756 UTC
Wind: Calm:0
Visibility: 10 mile(s):0
Sky conditions: overcast
Precipitation last hour: A trace
Temperature: 54.5 F (12.5 C)
Dew Point: 54.5 F (12.5 C)
Relative Humidity: 100%
Pressure (altimeter): 29.84 in. Hg (1010 hPa)
ob: KLSF 170756Z AUTO 00000KT 10SM OVC110 13/13 A2984 RMK AO2 RAB02E13DZB13E14 SLP109 P0000 T01250125
cycle: 8

Station Type Date Time Source
KLSF TAF 2019/02/16 01:09 UTC NOAA

TAF KLSF 160100Z 1601/1707 21006KT 9999 OVC018 QNH2968INS
BECMG 1607/1608 22009KT 6000 -RA BR OVC010 QNH2973INS
BECMG 1611/1612 27009KT 6000 -RA BR OVC008 QNH2981INS
TEMPO 1612/1616 OVC005
BECMG 1616/1617 24010G15KT 9999 NSW BKN025 QNH2983INS
BECMG 1622/1623 VRB04KT 9999 BKN030 QNH2973INS
BECMG 1706/1707 18003KT 9999 OVC009 QNH2973INS TX22/1621Z TN15/1608Z LAST NO
AMDS AFT 1604 NEXT 1901


Example: see airport list